Time;durP1;ratioP1;P1;durP2;ratioP2;P2;SDS_P1;SDS_P2;PMS_P1;PMS_P2;Temp;Humidity;BMP_temperature;BMP_pressure;BME280_temperature;BME280_humidity;BME280_pressure;Samples;Min_cycle;Max_cycle;Signal;HPM_P1;HPM_P2
2021/08/02 00:00:45;;;;;;;5.93;1.52;;;;;;;11.48;100.00;99934.03;4981595;28;20553;-80
2021/08/02 00:03:17;;;;;;;6.00;1.20;;;;;;;11.40;100.00;99930.81;4983075;28;20068;-80
2021/08/02 00:05:52;;;;;;;6.65;1.50;;;;;;;11.35;100.00;99924.91;4983851;28;20514;-80
2021/08/02 00:08:24;;;;;;;4.47;1.20;;;;;;;11.40;100.00;99935.19;4981751;28;20054;-80
2021/08/02 00:10:50;;;;;;;6.03;1.40;;;;;;;11.40;100.00;99933.41;4981967;28;20065;-80
2021/08/02 00:13:25;;;;;;;5.70;1.15;;;;;;;11.45;100.00;99934.13;4981854;28;20026;-80
2021/08/02 00:15:50;;;;;;;4.97;1.33;;;;;;;11.49;100.00;99940.06;4981792;28;20034;-80
2021/08/02 00:18:15;;;;;;;6.22;1.30;;;;;;;11.58;100.00;99944.13;4982457;28;20038;-80
2021/08/02 00:20:41;;;;;;;6.85;1.20;;;;;;;11.69;100.00;99944.63;4984693;28;20035;-80
2021/08/02 00:23:08;;;;;;;4.00;1.27;;;;;;;11.77;100.00;99947.81;4982944;28;20510;-80
2021/08/02 00:25:35;;;;;;;7.20;1.27;;;;;;;11.85;100.00;99947.59;4983749;28;20034;-80
2021/08/02 00:28:02;;;;;;;4.80;1.30;;;;;;;11.93;100.00;99953.38;4982063;28;20399;-80
2021/08/02 00:30:27;;;;;;;5.82;1.30;;;;;;;11.93;100.00;99954.22;4982681;28;20069;-80
2021/08/02 00:32:53;;;;;;;3.85;1.20;;;;;;;11.94;100.00;99947.28;4982180;28;20480;-80
2021/08/02 00:35:19;;;;;;;4.07;2.20;;;;;;;11.96;100.00;99950.69;4983439;28;20065;-80
2021/08/02 00:38:24;;;;;;;6.97;1.48;;;;;;;11.96;100.00;99946.34;4982903;28;20451;-80
2021/08/02 00:41:12;;;;;;;6.32;1.15;;;;;;;12.00;100.00;99943.63;4953863;28;20499;-80
2021/08/02 00:43:46;;;;;;;4.40;1.67;;;;;;;11.97;100.00;99936.78;4982661;28;20022;-80
2021/08/02 00:46:13;;;;;;;;;;;;;;;12.04;100.00;99942.59;4985163;28;20025;-80
2021/08/02 00:48:57;;;;;;;8.35;1.98;;;;;;;11.99;100.00;99945.38;4981288;28;19945;-80
2021/08/02 00:51:24;;;;;;;6.97;1.48;;;;;;;12.04;100.00;99946.09;4983076;28;20026;-80
2021/08/02 00:53:52;;;;;;;6.25;1.23;;;;;;;12.00;100.00;99943.63;4982958;28;20081;-80
2021/08/02 00:56:18;;;;;;;7.20;1.40;;;;;;;11.96;100.00;99940.28;4982181;28;20428;-80
2021/08/02 00:58:46;;;;;;;6.18;1.58;;;;;;;11.96;100.00;99932.50;4982806;28;20599;-80
2021/08/02 01:01:12;;;;;;;5.85;1.65;;;;;;;11.96;100.00;99938.53;4982489;28;20159;-80
2021/08/02 01:03:41;;;;;;;7.57;1.67;;;;;;;11.90;100.00;99936.13;4985059;28;20414;-80
2021/08/02 01:06:08;;;;;;;3.78;1.25;;;;;;;11.92;100.00;99941.31;4984131;28;20030;-80
2021/08/02 01:08:37;;;;;;;6.70;1.60;;;;;;;11.84;100.00;99933.72;4984977;28;20030;-80
2021/08/02 01:11:06;;;;;;;6.63;1.55;;;;;;;11.79;100.00;99940.81;4985826;28;20084;-80
2021/08/02 01:13:35;;;;;;;4.63;1.38;;;;;;;11.72;100.00;99936.72;4985222;28;20034;-80
2021/08/02 01:16:04;;;;;;;6.80;1.33;;;;;;;11.68;100.00;99935.97;4985310;28;20035;-80
2021/08/02 01:18:31;;;;;;;5.28;1.30;;;;;;;11.66;100.00;99942.97;4985846;28;20027;-80
2021/08/02 01:21:03;;;;;;;5.68;1.40;;;;;;;11.67;100.00;99941.25;4985501;28;20034;-80
2021/08/02 01:23:30;;;;;;;7.47;1.58;;;;;;;11.68;100.00;99941.16;4983722;28;20097;-80
2021/08/02 01:25:56;;;;;;;6.30;1.55;;;;;;;11.64;100.00;99943.94;4984506;28;20026;-80
2021/08/02 01:28:41;;;;;;;8.02;1.52;;;;;;;11.60;100.00;99950.09;4983487;28;20054;-80
2021/08/02 01:31:11;;;;;;;4.80;1.02;;;;;;;11.61;100.00;99947.47;4983950;28;20545;-80
2021/08/02 01:33:37;;;;;;;4.65;1.30;;;;;;;11.58;100.00;99952.78;4984929;28;20026;-80
2021/08/02 01:36:05;;;;;;;5.93;1.20;;;;;;;11.55;100.00;99952.88;4986065;28;20037;-80
2021/08/02 01:38:32;;;;;;;6.55;1.27;;;;;;;11.59;100.00;99962.25;4983933;28;20033;-80
2021/08/02 01:40:57;;;;;;;4.50;1.17;;;;;;;11.58;100.00;99957.13;4985167;28;20026;-80
2021/08/02 01:43:23;;;;;;;6.85;1.27;;;;;;;11.58;100.00;99955.38;4986220;28;20027;-80
2021/08/02 01:46:05;;;;;;;9.55;2.70;;;;;;;11.64;100.00;99956.91;4984750;28;20030;-80
2021/08/02 01:48:44;;;;;;;6.07;1.20;;;;;;;11.66;100.00;99960.31;4986587;28;20030;-80
2021/08/02 01:51:19;;;;;;;5.70;1.65;;;;;;;11.69;100.00;99957.59;4989912;28;20072;-80
2021/08/02 01:53:59;;;;;;;6.93;1.48;;;;;;;11.73;100.00;99954.03;4997326;28;20059;-80
2021/08/02 01:57:10;;;;;;;8.32;1.50;;;;;;;11.61;100.00;99963.06;4996810;28;20031;-79
2021/08/02 01:59:41;;;;;;;6.22;1.13;;;;;;;11.49;100.00;99964.28;4964318;28;20049;-80
2021/08/02 02:02:11;;;;;;;5.03;1.20;;;;;;;11.39;100.00;99962.03;4992938;28;20034;-80
2021/08/02 02:04:51;;;;;;;4.93;1.13;;;;;;;11.31;100.00;99961.44;4974995;28;20026;-80
2021/08/02 02:07:18;;;;;;;4.60;1.05;;;;;;;11.34;100.00;99963.94;4976233;28;20022;-80
2021/08/02 02:09:45;;;;;;;4.55;1.20;;;;;;;11.30;100.00;99963.19;4975927;28;20031;-80
2021/08/02 02:12:12;;;;;;;5.60;1.40;;;;;;;11.36;100.00;99962.09;4974768;28;20019;-80
2021/08/02 02:14:39;;;;;;;4.07;1.20;;;;;;;11.32;100.00;99961.38;4975991;28;20502;-80
2021/08/02 02:17:06;;;;;;;8.68;1.42;;;;;;;11.37;100.00;99953.44;4975582;28;20034;-80
2021/08/02 02:19:33;;;;;;;5.35;1.10;;;;;;;11.41;100.00;99952.44;4975971;28;20027;-80
2021/08/02 02:22:00;;;;;;;5.57;1.20;;;;;;;11.41;100.00;99960.22;4974443;28;20033;-80
2021/08/02 02:24:26;;;;;;;5.75;1.20;;;;;;;11.43;100.00;99953.25;4975823;28;20030;-80
2021/08/02 02:26:54;;;;;;;6.40;1.38;;;;;;;11.38;100.00;99950.78;4976076;28;20023;-80
2021/08/02 02:29:20;;;;;;;6.93;1.02;;;;;;;11.37;100.00;99956.03;4974772;28;20022;-80
2021/08/02 02:31:47;;;;;;;10.73;1.45;;;;;;;11.28;100.00;99957.16;4980507;28;20094;-80
2021/08/02 02:34:15;;;;;;;4.20;1.20;;;;;;;11.28;100.00;99967.56;4981360;28;20436;-80
2021/08/02 02:36:41;;;;;;;5.32;1.30;;;;;;;11.26;100.00;99962.41;4980977;28;20089;-80
2021/08/02 02:39:08;;;;;;;5.35;0.95;;;;;;;11.32;100.00;99965.72;4980907;28;20069;-80
2021/08/02 02:41:34;;;;;;;6.10;1.40;;;;;;;11.29;100.00;99957.09;4980334;28;20498;-80
2021/08/02 02:44:01;;;;;;;6.32;1.00;;;;;;;11.36;100.00;99965.59;4982509;28;20033;-80
2021/08/02 02:46:28;;;;;;;15.10;1.77;;;;;;;11.42;100.00;99967.13;4981753;28;20054;-80
2021/08/02 02:48:56;;;;;;;8.70;1.50;;;;;;;11.44;100.00;99960.13;4982866;28;20037;-80
2021/08/02 02:51:23;;;;;;;3.53;1.20;;;;;;;11.49;100.00;99955.66;4982923;28;20026;-80
2021/08/02 02:53:50;;;;;;;6.85;1.30;;;;;;;11.49;100.00;99958.25;4982990;28;20509;-80
2021/08/02 02:56:17;;;;;;;5.22;1.20;;;;;;;11.51;100.00;99967.69;4981395;28;20502;-80
2021/08/02 02:58:43;;;;;;;5.53;1.00;;;;;;;11.47;100.00;99965.22;4981202;28;20019;-80
2021/08/02 03:01:12;;;;;;;5.18;1.10;;;;;;;11.51;100.00;99978.09;4981092;28;20046;-80
2021/08/02 03:03:44;;;;;;;5.80;1.23;;;;;;;11.50;100.00;99980.72;4980325;28;20033;-80
2021/08/02 03:06:10;;;;;;;6.97;1.30;;;;;;;11.49;100.00;99985.06;4979778;28;20137;-80
2021/08/02 03:08:37;;;;;;;4.80;1.13;;;;;;;11.38;100.00;99986.28;4979836;28;20174;-80
2021/08/02 03:11:05;;;;;;;3.88;1.05;;;;;;;11.35;100.00;99986.38;4978209;28;20027;-80
2021/08/02 03:13:31;;;;;;;6.82;1.38;;;;;;;11.25;100.00;99986.66;4980037;28;20027;-80
2021/08/02 03:15:56;;;;;;;7.97;1.15;;;;;;;11.24;100.00;99981.53;4979722;28;20045;-80
2021/08/02 03:18:21;;;;;;;6.93;1.40;;;;;;;11.20;100.00;99995.47;4980070;28;20022;-80
2021/08/02 03:20:47;;;;;;;7.70;1.50;;;;;;;11.19;100.00;99980.81;4979949;28;20142;-80
2021/08/02 03:23:44;;;;;;;4.70;1.23;;;;;;;11.17;100.00;99992.97;4980906;28;20022;-80
2021/08/02 03:26:13;;;;;;;5.95;1.58;;;;;;;11.18;100.00;99992.94;4962894;28;20035;-80
2021/08/02 03:28:43;;;;;;;7.10;1.30;;;;;;;11.18;100.00;99990.34;4980217;28;20034;-80
2021/08/02 03:31:12;;;;;;;5.40;1.55;;;;;;;11.20;100.00;99996.31;4978503;28;20049;-80
2021/08/02 03:33:41;;;;;;;5.50;1.00;;;;;;;11.25;100.00;99989.25;4978790;28;20066;-80
2021/08/02 03:36:09;;;;;;;7.20;1.77;;;;;;;11.28;100.00;99986.56;4980162;28;20482;-80
2021/08/02 03:38:36;;;;;;;7.60;1.80;;;;;;;11.29;100.00;99985.66;4978131;28;20049;-80
2021/08/02 03:41:04;;;;;;;6.15;1.45;;;;;;;11.37;100.00;99989.78;4978114;28;20345;-80
2021/08/02 03:43:33;;;;;;;6.22;1.48;;;;;;;11.38;100.00;99986.28;4977728;28;20129;-80
2021/08/02 03:45:59;;;;;;;8.45;1.52;;;;;;;11.39;100.00;99986.25;4977952;28;20027;-80
2021/08/02 03:48:25;;;;;;;5.85;1.30;;;;;;;11.44;100.00;99983.50;4977718;28;20479;-80
2021/08/02 03:50:51;;;;;;;6.88;1.50;;;;;;;11.44;100.00;99986.09;4994342;28;20031;-80
2021/08/02 03:53:16;;;;;;;5.82;1.58;;;;;;;11.49;100.00;99989.41;4978872;28;20030;-80
2021/08/02 03:55:43;;;;;;;6.63;1.42;;;;;;;11.48;100.00;99995.50;4978179;28;20113;-80
2021/08/02 03:58:09;;;;;;;5.63;1.50;;;;;;;11.43;100.00;99997.41;4978328;28;20023;-80
2021/08/02 04:00:34;;;;;;;6.03;1.63;;;;;;;11.53;100.00;100004.84;4977933;28;20070;-80
2021/08/02 04:02:59;;;;;;;7.07;1.90;;;;;;;11.55;100.00;99999.63;4978674;28;20476;-80
2021/08/02 04:05:25;;;;;;;5.63;1.30;;;;;;;11.55;100.00;100003.97;4994980;28;20030;-80
2021/08/02 04:07:50;;;;;;;9.20;1.50;;;;;;;11.52;100.00;100010.09;4980407;28;20019;-80
2021/08/02 04:10:16;;;;;;;5.22;1.27;;;;;;;11.60;100.00;100007.25;4977869;28;20042;-80
2021/08/02 04:12:41;;;;;;;5.95;1.80;;;;;;;11.62;100.00;100006.31;4978413;28;20046;-80
2021/08/02 04:15:08;;;;;;;5.68;1.38;;;;;;;11.69;100.00;100007.81;4977451;28;20022;-80
2021/08/02 04:17:34;;;;;;;10.20;1.60;;;;;;;11.60;100.00;100008.09;4976486;28;20479;-80
2021/08/02 04:19:59;;;;;;;5.50;1.35;;;;;;;11.68;100.00;100016.50;4977270;28;20035;-80
2021/08/02 04:22:24;;;;;;;6.68;1.35;;;;;;;11.70;100.00;100019.91;4979857;28;20023;-80
2021/08/02 04:24:50;;;;;;;4.70;1.63;;;;;;;11.64;100.00;100016.66;4982072;28;20101;-80
2021/08/02 04:27:15;;;;;;;14.30;2.00;;;;;;;11.74;100.00;100018.91;4982785;28;20110;-80
2021/08/02 04:29:41;;;;;;;9.07;1.65;;;;;;;11.72;100.00;100022.44;4997009;28;20093;-80
2021/08/02 04:32:06;;;;;;;8.75;1.40;;;;;;;11.68;100.00;100018.25;4978405;28;20034;-80
2021/08/02 04:34:32;;;;;;;4.97;1.42;;;;;;;11.74;100.00;100012.88;4977404;28;20023;-80
2021/08/02 04:36:57;;;;;;;9.35;1.60;;;;;;;11.78;100.00;100013.63;4977278;28;20066;-80
2021/08/02 04:39:22;;;;;;;5.65;1.33;;;;;;;11.86;100.00;100019.47;4978734;28;20030;-80
2021/08/02 04:41:47;;;;;;;7.25;1.65;;;;;;;11.84;100.00;100018.63;4977762;28;20022;-80
2021/08/02 04:44:13;;;;;;;5.85;1.52;;;;;;;11.87;100.00;100021.16;4978202;28;20492;-80
2021/08/02 04:46:38;;;;;;;4.97;1.40;;;;;;;11.85;100.00;100028.13;4978107;28;20015;-80
2021/08/02 04:49:03;;;;;;;5.38;1.45;;;;;;;11.91;100.00;100023.59;4977716;28;20035;-80
2021/08/02 04:51:28;;;;;;;6.25;1.65;;;;;;;11.90;100.00;100024.50;4977600;28;20033;-80
2021/08/02 04:53:54;;;;;;;8.02;1.45;;;;;;;11.94;100.00;100023.50;4977750;28;20023;-80
2021/08/02 04:56:19;;;;;;;5.68;1.33;;;;;;;12.01;100.00;100033.69;4976939;28;20027;-80
2021/08/02 04:58:44;;;;;;;5.32;1.33;;;;;;;12.02;100.00;100033.66;4992677;28;20086;-80
2021/08/02 05:01:10;;;;;;;6.82;1.55;;;;;;;12.06;100.00;100040.44;4975905;28;20031;-80
2021/08/02 05:03:37;;;;;;;7.80;1.60;;;;;;;12.02;100.00;100038.00;4976243;28;20031;-80
2021/08/02 05:06:02;;;;;;;5.32;1.40;;;;;;;12.21;100.00;100047.72;4981188;28;20175;-80
2021/08/02 05:08:28;;;;;;;5.20;1.45;;;;;;;12.23;100.00;100047.69;4996260;28;20135;-80
2021/08/02 05:10:53;;;;;;;6.03;1.55;;;;;;;12.23;100.00;100050.28;4995796;28;20514;-80
2021/08/02 05:13:18;;;;;;;7.22;1.45;;;;;;;12.16;100.00;100049.66;4979084;28;20027;-80
2021/08/02 05:15:43;;;;;;;8.80;1.60;;;;;;;12.26;100.00;100054.56;4997292;28;20030;-81
2021/08/02 05:18:10;;;;;;;8.25;1.90;;;;;;;12.25;100.00;100052.84;4980925;28;20520;-81
2021/08/02 05:20:36;;;;;;;10.88;1.80;;;;;;;12.44;100.00;100057.38;4981217;28;20027;-80
2021/08/02 05:23:01;;;;;;;7.75;1.40;;;;;;;12.56;100.00;100057.84;4983122;28;20033;-81
2021/08/02 05:25:26;;;;;;;8.68;1.95;;;;;;;12.43;100.00;100054.81;4980993;28;20031;-81
2021/08/02 05:27:52;;;;;;;9.73;1.95;;;;;;;12.58;100.00;100054.28;4983244;28;20091;-80
2021/08/02 05:30:20;;;;;;;8.77;1.60;;;;;;;12.77;100.00;100056.25;4982851;28;20039;-80
2021/08/02 05:32:46;;;;;;;5.22;1.33;;;;;;;12.91;100.00;100054.03;4980885;28;20023;-80
2021/08/02 05:35:12;;;;;;;7.18;1.70;;;;;;;12.95;100.00;100044.34;4982209;28;20136;-81
2021/08/02 05:37:37;;;;;;;7.57;2.03;;;;;;;12.88;100.00;100048.91;4982864;28;20033;-81
2021/08/02 05:40:04;;;;;;;8.27;1.80;;;;;;;12.84;100.00;100053.41;4980679;28;20390;-80
2021/08/02 05:42:30;;;;;;;8.73;1.48;;;;;;;12.65;100.00;100054.91;4980686;28;20026;-80
2021/08/02 05:44:55;;;;;;;8.10;1.60;;;;;;;12.60;100.00;100054.25;4983673;28;20026;-81
2021/08/02 05:47:21;;;;;;;11.30;1.90;;;;;;;12.77;100.00;100056.25;4998986;28;20054;-80
2021/08/02 05:49:47;;;;;;;10.45;1.67;;;;;;;12.81;100.00;100055.25;4999414;28;20042;-80
2021/08/02 05:52:12;;;;;;;7.47;1.50;;;;;;;12.94;100.00;100058.28;4983646;28;20023;-80
2021/08/02 05:54:37;;;;;;;8.00;1.73;;;;;;;13.11;100.00;100050.69;4984956;28;20399;-80
2021/08/02 05:57:03;;;;;;;4.88;1.40;;;;;;;13.08;100.00;100051.66;4999916;28;20377;-80
2021/08/02 05:59:29;;;;;;;8.05;1.38;;;;;;;13.23;100.00;100054.59;4982869;28;20041;-80
2021/08/02 06:01:54;;;;;;;9.63;1.65;;;;;;;13.26;100.00;100050.13;4983297;28;20505;-80
2021/08/02 06:04:19;;;;;;;4.75;1.20;;;;;;;13.32;100.00;100055.13;4983010;28;20034;-80
2021/08/02 06:06:44;;;;;;;8.68;1.92;;;;;;;13.48;100.00;100055.38;4982335;28;20121;-80
2021/08/02 06:09:11;;;;;;;12.20;1.90;;;;;;;13.69;100.00;100051.09;4982102;28;20034;-80
2021/08/02 06:11:37;;;;;;;10.32;1.70;;;;;;;13.40;100.00;100052.25;4981771;28;20027;-80
2021/08/02 06:14:03;;;;;;;5.03;1.75;;;;;;;13.50;100.00;100053.56;4982856;28;20027;-80
2021/08/02 06:16:28;;;;;;;7.78;1.80;;;;;;;13.42;100.00;100054.78;4982683;28;20030;-80
2021/08/02 06:18:53;;;;;;;5.70;1.40;;;;;;;13.24;100.00;100064.09;4997862;28;20018;-80
2021/08/02 06:21:19;;;;;;;5.57;1.70;;;;;;;13.41;100.00;100064.34;4982847;28;20547;-80
2021/08/02 06:23:44;;;;;;;9.45;1.55;;;;;;;13.50;100.00;100069.22;4982117;28;20023;-80
2021/08/02 06:26:09;;;;;;;6.57;1.63;;;;;;;13.63;100.00;100063.53;4981177;28;20029;-80
2021/08/02 06:28:34;;;;;;;6.57;1.50;;;;;;;13.64;100.00;100066.09;4997439;28;20026;-80
2021/08/02 06:31:01;;;;;;;7.72;1.70;;;;;;;13.54;100.00;100067.34;4980952;28;20095;-80
2021/08/02 06:33:30;;;;;;;6.35;1.60;;;;;;;13.59;100.00;100068.84;4982909;28;20030;-80
2021/08/02 06:35:55;;;;;;;8.88;1.45;;;;;;;13.63;100.00;100069.59;4982122;28;20498;-80
2021/08/02 06:38:21;;;;;;;8.48;1.95;;;;;;;13.79;100.00;100067.22;4980648;28;20054;-80
2021/08/02 06:40:46;;;;;;;8.75;1.73;;;;;;;14.07;100.00;100063.50;4982497;28;20117;-80
2021/08/02 06:43:12;;;;;;;5.97;1.90;;;;;;;14.19;100.00;100069.09;4979854;28;20042;-80
2021/08/02 06:45:38;;;;;;;7.55;1.45;;;;;;;14.37;100.00;100072.69;4979358;28;20033;-80
2021/08/02 06:48:04;;;;;;;8.38;1.58;;;;;;;14.27;100.00;100072.22;4980014;28;20116;-80
2021/08/02 06:50:29;;;;;;;7.15;1.50;;;;;;;14.58;100.00;100075.34;4981583;28;20065;-80
2021/08/02 06:52:54;;;;;;;10.38;1.60;;;;;;;15.98;100.00;100073.38;4981964;28;20027;-80
2021/08/02 06:55:20;;;;;;;4.97;1.30;;;;;;;17.98;98.78;100074.31;4980751;28;20050;-80
2021/08/02 06:57:45;;;;;;;6.00;1.45;;;;;;;16.75;100.00;100086.13;4979383;28;20460;-80
2021/08/02 07:00:11;;;;;;;6.00;1.30;;;;;;;16.08;100.00;100084.22;4981090;28;20050;-80
2021/08/02 07:02:36;;;;;;;7.05;1.50;;;;;;;15.66;100.00;100090.53;4980186;28;20094;-80
2021/08/02 07:05:02;;;;;;;4.78;1.33;;;;;;;15.41;100.00;100090.84;4980961;28;20082;-81
2021/08/02 07:07:27;;;;;;;5.95;1.52;;;;;;;15.37;100.00;100103.19;4979622;28;20019;-81
2021/08/02 07:09:53;;;;;;;4.60;1.45;;;;;;;15.62;100.00;100089.84;4978193;28;20037;-81
2021/08/02 07:12:18;;;;;;;7.75;1.63;;;;;;;15.43;100.00;100102.91;4977153;28;20467;-80
2021/08/02 07:14:43;;;;;;;6.95;1.30;;;;;;;15.77;100.00;100090.09;4978107;28;20085;-81
2021/08/02 07:17:09;;;;;;;7.43;1.55;;;;;;;15.54;100.00;100094.56;4994499;28;20030;-80
2021/08/02 07:19:34;;;;;;;7.53;1.52;;;;;;;15.23;100.00;100095.13;4980114;28;20479;-80
2021/08/02 07:21:59;;;;;;;5.63;1.30;;;;;;;15.83;100.00;100092.41;4980130;28;20023;-80
2021/08/02 07:24:25;;;;;;;4.97;1.20;;;;;;;17.21;100.00;100093.34;4980992;28;20027;-81
2021/08/02 07:26:50;;;;;;;6.65;1.60;;;;;;;17.05;100.00;100097.69;4994692;28;20387;-81
2021/08/02 07:29:15;;;;;;;4.82;1.17;;;;;;;16.45;100.00;100101.59;4977437;28;20534;-81
2021/08/02 07:31:41;;;;;;;7.82;1.42;;;;;;;16.75;100.00;100108.81;4977702;28;20525;-80
2021/08/02 07:34:06;;;;;;;6.65;1.48;;;;;;;16.13;100.00;100108.38;4977300;28;20034;-81
2021/08/02 07:36:32;;;;;;;4.70;0.98;;;;;;;16.16;100.00;100110.84;4991679;28;20031;-80
2021/08/02 07:38:57;;;;;;;6.13;1.42;;;;;;;16.40;100.00;100118.44;4976391;28;20400;-80
2021/08/02 07:41:23;;;;;;;6.95;1.20;;;;;;;15.80;100.00;100111.69;4976176;28;20023;-81
2021/08/02 07:43:48;;;;;;;7.40;1.15;;;;;;;15.78;100.00;100107.47;4977038;28;20402;-81
2021/08/02 07:46:14;;;;;;;7.60;0.98;;;;;;;15.69;100.00;100111.34;4976505;28;20027;-81
2021/08/02 07:48:39;;;;;;;5.10;1.05;;;;;;;15.62;100.00;100110.75;4975762;28;20027;-81
2021/08/02 07:51:05;;;;;;;6.70;1.23;;;;;;;15.95;100.00;100106.66;4975584;28;20073;-81
2021/08/02 07:53:31;;;;;;;4.68;1.17;;;;;;;15.89;100.00;100105.19;4976137;28;20356;-81
2021/08/02 07:55:56;;;;;;;4.38;1.02;;;;;;;15.80;100.00;100105.63;4976983;28;20045;-81
2021/08/02 07:58:21;;;;;;;4.57;1.00;;;;;;;15.82;100.00;100107.22;4979862;28;20442;-82
2021/08/02 08:00:46;;;;;;;9.23;1.00;;;;;;;15.75;100.00;100097.16;4982239;28;20034;-81
2021/08/02 08:03:15;;;;;;;7.18;1.00;;;;;;;15.73;100.00;100097.19;4982141;28;20034;-82
2021/08/02 08:05:41;;;;;;;4.38;0.90;;;;;;;15.47;100.00;100101.00;4980060;28;20090;-82
2021/08/02 08:08:06;;;;;;;4.30;0.93;;;;;;;15.41;100.00;100109.97;4981583;28;20022;-82
2021/08/02 08:10:32;;;;;;;3.90;0.90;;;;;;;15.80;100.00;100105.63;4980125;28;20030;-82
2021/08/02 08:12:57;;;;;;;3.05;0.90;;;;;;;16.02;100.00;100110.69;4979716;28;20022;-82
2021/08/02 08:15:24;;;;;;;8.13;1.30;;;;;;;15.84;100.00;100109.78;4995921;28;20158;-82
2021/08/02 08:17:50;;;;;;;4.50;1.20;;;;;;;15.28;100.00;100108.84;4979664;28;20511;-82
2021/08/02 08:20:18;;;;;;;8.75;1.98;;;;;;;14.95;100.00;100122.44;4980093;28;20054;-82
2021/08/02 08:22:43;;;;;;;5.28;1.20;;;;;;;14.66;100.00;100120.25;4981313;28;20090;-82
2021/08/02 08:25:09;;;;;;;3.65;0.98;;;;;;;14.10;100.00;100118.16;4981084;28;20084;-84
2021/08/02 08:27:36;;;;;;;5.32;0.77;;;;;;;13.79;100.00;100121.97;4981729;28;20023;-82
2021/08/02 08:30:02;;;;;;;5.78;1.23;;;;;;;13.63;100.00;100134.72;4982630;28;20030;-83
2021/08/02 08:32:28;;;;;;;2.72;0.85;;;;;;;13.61;100.00;100133.09;4981963;28;20034;-82
2021/08/02 08:34:53;;;;;;;4.30;1.00;;;;;;;13.53;100.00;100129.03;4998019;28;20030;-82
2021/08/02 08:37:19;;;;;;;5.07;1.00;;;;;;;13.46;100.00;100137.13;4983132;28;20109;-82
2021/08/02 08:39:44;;;;;;;8.13;1.30;;;;;;;13.44;100.00;100142.38;4979890;28;20073;-84
2021/08/02 08:42:09;;;;;;;10.38;1.20;;;;;;;13.23;100.00;100137.91;4978844;28;20471;-83
2021/08/02 08:44:35;;;;;;;7.18;1.50;;;;;;;13.19;100.00;100137.19;4979440;28;20026;-83
2021/08/02 08:47:01;;;;;;;6.65;1.02;;;;;;;13.38;100.00;100137.41;4978968;28;20570;-83
2021/08/02 08:49:26;;;;;;;5.65;1.10;;;;;;;13.76;100.00;100130.78;4978790;28;20086;-83
2021/08/02 08:51:53;;;;;;;5.88;1.08;;;;;;;14.30;100.00;100133.03;4978842;28;20472;-83
2021/08/02 08:54:19;;;;;;;4.97;1.20;;;;;;;14.66;100.00;100135.91;4995354;28;20034;-82
2021/08/02 08:56:44;;;;;;;7.32;1.42;;;;;;;14.87;100.00;100131.53;4979501;28;20023;-80
2021/08/02 08:59:13;;;;;;;5.57;1.25;;;;;;;15.34;100.00;100132.06;4993787;28;20046;-79
2021/08/02 09:01:39;;;;;;;7.15;1.38;;;;;;;15.88;100.00;100127.00;4977476;28;20023;-79
2021/08/02 09:04:05;;;;;;;4.50;1.27;;;;;;;16.74;100.00;100126.28;4979050;28;20399;-80
2021/08/02 09:06:31;;;;;;;7.70;1.40;;;;;;;17.73;100.00;100127.22;4980215;28;20022;-80
2021/08/02 09:08:56;;;;;;;6.65;1.30;;;;;;;18.29;100.00;100125.06;4977911;28;20023;-80
2021/08/02 09:11:25;;;;;;;7.50;1.25;;;;;;;18.13;100.00;100119.81;4995682;28;20457;-80
2021/08/02 09:13:51;;;;;;;5.22;1.02;;;;;;;17.63;100.00;100124.28;4979979;28;20033;-81
2021/08/02 09:16:24;;;;;;;4.43;1.00;;;;;;;18.17;100.00;100122.19;4981703;28;20023;-80
2021/08/02 09:19:02;;;;;;;8.13;1.35;;;;;;;18.34;100.00;100130.88;4980872;28;20509;-81
2021/08/02 09:21:38;;;;;;;5.18;1.05;;;;;;;17.25;100.00;100129.81;4982300;28;20031;-80
2021/08/02 09:24:04;;;;;;;5.90;1.30;;;;;;;16.57;100.00;100136.78;4983626;28;20034;-80
2021/08/02 09:26:30;;;;;;;5.20;1.30;;;;;;;16.06;100.00;100135.78;4985566;28;20053;-80
2021/08/02 09:28:56;;;;;;;5.47;1.00;;;;;;;15.96;100.00;100126.69;4984984;28;20029;-81
2021/08/02 09:31:37;;;;;;;6.70;1.30;;;;;;;16.27;100.00;100132.13;5000785;28;20026;-80
2021/08/02 09:34:05;;;;;;;8.68;1.73;;;;;;;16.47;100.00;100138.13;4984460;28;20034;-79
2021/08/02 09:36:42;;;;;;;6.40;1.35;;;;;;;16.19;100.00;100142.09;4982000;28;20089;-79
2021/08/02 09:39:09;;;;;;;2.55;0.82;;;;;;;15.85;100.00;100135.84;4982494;28;20122;-80
2021/08/02 09:41:34;;;;;;;7.30;1.20;;;;;;;15.66;100.00;100135.00;4980550;28;20050;-80
2021/08/02 09:44:00;;;;;;;5.88;1.20;;;;;;;15.59;100.00;100129.19;4997330;28;20427;-80
2021/08/02 09:46:25;;;;;;;9.68;1.75;;;;;;;15.77;100.00;100129.31;4980530;28;20023;-79
2021/08/02 09:48:50;;;;;;;4.32;0.90;;;;;;;15.91;100.00;100128.66;4982319;28;20030;-79
2021/08/02 09:51:21;;;;;;;5.65;1.30;;;;;;;15.83;100.00;100134.25;4980339;28;20034;-79
2021/08/02 09:53:53;;;;;;;6.97;0.98;;;;;;;15.93;100.00;100135.50;4981809;28;20049;-78
2021/08/02 09:56:21;;;;;;;8.35;1.40;;;;;;;16.52;100.00;100137.00;4982284;28;20168;-79
2021/08/02 09:58:47;;;;;;;4.90;1.02;;;;;;;18.76;100.00;100137.22;4982039;28;20038;-79
2021/08/02 10:01:14;;;;;;;6.38;1.38;;;;;;;19.97;92.15;100133.25;4984460;28;20027;-79
2021/08/02 10:03:40;;;;;;;5.85;1.15;;;;;;;18.26;100.00;100127.84;4988150;28;20506;-79
2021/08/02 10:06:06;;;;;;;5.75;1.55;;;;;;;17.78;100.00;100129.66;4991128;28;20023;-79
2021/08/02 10:08:35;;;;;;;5.38;1.17;;;;;;;17.58;100.00;100126.31;4991256;28;20027;-79
2021/08/02 10:11:01;;;;;;;6.00;1.70;;;;;;;17.46;100.00;100140.94;4992303;28;20027;-79
2021/08/02 10:13:33;;;;;;;4.50;1.00;;;;;;;17.31;100.00;100144.38;4990686;28;20027;-79
2021/08/02 10:16:03;;;;;;;6.28;1.00;;;;;;;19.60;94.32;100131.25;4984395;28;20112;-79
2021/08/02 10:18:30;;;;;;;3.17;0.85;;;;;;;20.77;85.30;100129.84;4984862;28;20067;-80
2021/08/02 10:21:07;;;;;;;5.22;1.20;;;;;;;21.13;79.23;100134.41;4982333;28;20081;-81
2021/08/02 10:23:33;;;;;;;5.72;1.00;;;;;;;20.32;80.71;100138.06;4983862;28;20031;-80
2021/08/02 10:25:58;;;;;;;4.70;0.90;;;;;;;20.54;83.80;100134.88;4984223;28;20034;-80
2021/08/02 10:28:24;;;;;;;6.32;1.35;;;;;;;20.08;80.26;100132.59;4981630;28;20109;-80
2021/08/02 10:31:02;;;;;;;5.35;1.48;;;;;;;21.05;76.70;100134.09;4981247;28;20038;-80
2021/08/02 10:33:38;;;;;;;6.25;1.08;;;;;;;21.92;73.64;100129.75;4980417;28;20089;-80
2021/08/02 10:36:14;;;;;;;6.57;1.23;;;;;;;22.12;70.88;100131.78;4981405;28;20038;-80
2021/08/02 10:38:42;;;;;;;6.82;1.17;;;;;;;22.81;69.23;100125.81;4980501;28;20438;-80
2021/08/02 10:41:08;;;;;;;9.43;1.65;;;;;;;20.40;79.67;100132.28;4979568;28;20022;-80
2021/08/02 10:43:35;;;;;;;6.30;1.10;;;;;;;20.84;70.23;100120.56;4979330;28;20502;-80
2021/08/02 10:46:14;;;;;;;5.30;1.00;;;;;;;18.83;84.72;100141.19;4981125;28;20027;-80
2021/08/02 10:48:39;;;;;;;3.67;0.88;;;;;;;17.98;88.11;100168.78;4979576;28;20380;-80
2021/08/02 10:51:10;;;;;;;3.50;0.73;;;;;;;15.60;100.00;100192.78;4979530;28;20037;-80
2021/08/02 10:53:36;;;;;;;3.50;0.80;;;;;;;14.50;100.00;100191.31;4977933;28;20027;-80
2021/08/02 10:56:01;;;;;;;4.35;1.08;;;;;;;13.97;100.00;100196.84;4977660;28;20035;-80
2021/08/02 10:58:27;;;;;;;4.30;0.90;;;;;;;13.68;100.00;100200.56;4977418;28;20453;-80
2021/08/02 11:00:55;;;;;;;5.43;1.10;;;;;;;13.40;100.00;100213.75;4977472;28;20023;-80
2021/08/02 11:03:31;;;;;;;8.63;2.05;;;;;;;13.23;100.00;100206.47;4976923;28;20110;-80
2021/08/02 11:05:58;;;;;;;3.67;1.02;;;;;;;13.27;100.00;100209.84;4975762;28;20475;-80
2021/08/02 11:08:24;;;;;;;3.63;1.05;;;;;;;13.38;100.00;100212.09;4975844;28;20073;-80
2021/08/02 11:10:49;;;;;;;4.78;0.82;;;;;;;13.47;100.00;100214.38;4976563;28;20027;-79
2021/08/02 11:13:27;;;;;;;5.55;1.20;;;;;;;13.53;100.00;100217.59;4974763;28;20145;-79
2021/08/02 11:15:53;;;;;;;4.25;0.90;;;;;;;13.50;100.00;100212.50;4975248;28;20054;-79
2021/08/02 11:18:24;;;;;;;4.95;1.10;;;;;;;13.52;100.00;100209.88;4974930;28;20105;-79
2021/08/02 11:20:49;;;;;;;7.57;1.40;;;;;;;13.61;100.00;100214.75;4975112;28;20057;-80